메인 페이지
METAR-TAF:

METAR-TAF

공항 :

테구시갈파, 온두라스

위도: 14-03N, 경도: 087-13W, 고도: 994m

현재 날씨관측

예보는 58분 전, 04:00시(UTC)에 발표되었습니다.
2kt
온도 19°C
습도 94%
기압 1017 hPa
시정: 8000m
고도 1000ft 상공 구름 조금
고도 2400ft 상공 구름 많음
고도 8000ft 상공 구름 많음
약한비

METAR: MHTG 160400Z 36002KT 8000 -RA FEW010 BKN024 BKN080 19/18 Q1017 A3003 NOSIG

시각: 22:58 (04:58 UTC)

예보

예보는 5 시간 58분 전, 23:00시(UTC)에 발표되었습니다.
예보 대상 시간: 16일 00시부터 16일 24시까지 (UTC)
북동4kt
시정: 4000m
고도 2800ft 상공 구름 보통, 적란운.
고도 7000ft 상공 구름 많음
뇌우, 비
전환 중
16일 04시부터 16일 06시까지 (UTC)
시정: 7000m
고도 2600ft 상공 구름 보통
고도 7000ft 상공 흐림
전환 중
16일 08시부터 16일 10시까지 (UTC)
시정 10km 이상
고도 600ft 상공 구름 조금
고도 2500ft 상공 구름 보통
고도 8000ft 상공 구름 많음
전환 중
16일 13시부터 16일 15시까지 (UTC)
북북동4kt
시정: 7000m
고도 2800ft 상공 구름 많음, 타워링 적운.
고도 8000ft 상공 구름 보통
약한비
일시적
16일 18시부터 16일 24시까지 (UTC)
여러 방향의 바람 2kt
시정: 5000m
고도 2800ft 상공 구름 보통, 적란운.
고도 3000ft 상공 구름 보통, 타워링 적운.

TAF: MHTG 152300Z 1600/1624 04004KT 4000 TSRA SCT028CB BKN070 TX23/1619Z TN18/1612Z BECMG 1604/1606 7000 RA SCT026 OVC070 BECMG 1608/1610 9999 NSW FEW006 SCT025 BKN080 BECMG 1613/1615 03004KT 7000 -RA BKN028TCU SCT080 TEMPO 1618/1624 VRB02KT 5000 TSSHRA SCT028CB SCT030TCU

4,000개 이상의 공항 관측 자료 및 예보 (METAR 및 TAF 보고).

지도상에서 검색 가능한 기상관측소가 노란 점과 빨간 점으로 표시되어 있습니다.

기상관측소 명을 보려면 표시 위로 마우스를 이동하세요.

날씨 관측과 예보를 보려면 클릭하세요.

지도 변경 : 확대하려면 엑스 표시가 있는 녹색 버튼, 축소하려면 빼기 표시가 있는 녹색 버튼, 다음 페이지의 지도를 보려면 녹색 화살표를 클릭하세요.


METAR-TAF: